sensor_id;sensor_type;location;lat;lon;timestamp;pressure;altitude;pressure_sealevel;temperature;humidity
18275;BME280;19470;49.322;7.218;2023-08-01T00:00:06;97508.09;;;22.10;100.00
18275;BME280;19470;49.322;7.218;2023-08-01T00:02:33;97518.78;;;22.34;100.00
18275;BME280;19470;49.322;7.218;2023-08-01T00:05:00;97497.88;;;22.63;100.00
18275;BME280;19470;49.322;7.218;2023-08-01T00:07:27;97495.19;;;21.87;100.00
18275;BME280;19470;49.322;7.218;2023-08-01T00:09:55;97490.16;;;22.02;100.00
18275;BME280;19470;49.322;7.218;2023-08-01T00:12:23;97489.50;;;22.05;100.00
18275;BME280;19470;49.322;7.218;2023-08-01T00:14:50;97478.28;;;22.03;100.00
18275;BME280;19470;49.322;7.218;2023-08-01T00:17:17;97469.47;;;22.06;100.00
18275;BME280;19470;49.322;7.218;2023-08-01T00:19:43;97457.19;;;22.36;100.00
18275;BME280;19470;49.322;7.218;2023-08-01T00:22:10;97463.84;;;21.67;100.00
18275;BME280;19470;49.322;7.218;2023-08-01T00:24:37;97440.22;;;22.36;100.00
18275;BME280;19470;49.322;7.218;2023-08-01T00:27:05;97433.88;;;22.28;100.00
18275;BME280;19470;49.322;7.218;2023-08-01T00:29:34;97437.69;;;22.27;100.00
18275;BME280;19470;49.322;7.218;2023-08-01T00:32:01;97438.94;;;22.02;100.00
18275;BME280;19470;49.322;7.218;2023-08-01T00:34:27;97445.69;;;22.24;100.00
18275;BME280;19470;49.322;7.218;2023-08-01T00:36:54;97429.31;;;22.01;100.00
18275;BME280;19470;49.322;7.218;2023-08-01T00:39:20;97438.53;;;22.00;100.00
18275;BME280;19470;49.322;7.218;2023-08-01T00:41:47;97431.69;;;22.34;100.00
18275;BME280;19470;49.322;7.218;2023-08-01T00:44:14;97437.06;;;22.02;100.00
18275;BME280;19470;49.322;7.218;2023-08-01T00:46:41;97428.34;;;21.93;100.00
18275;BME280;19470;49.322;7.218;2023-08-01T00:49:10;97429.72;;;21.87;100.00
18275;BME280;19470;49.322;7.218;2023-08-01T00:51:37;97434.34;;;21.58;100.00
18275;BME280;19470;49.322;7.218;2023-08-01T00:54:03;97425.03;;;22.00;100.00
18275;BME280;19470;49.322;7.218;2023-08-01T00:56:30;97438.63;;;22.03;100.00
18275;BME280;19470;49.322;7.218;2023-08-01T00:58:56;97440.63;;;21.34;100.00
18275;BME280;19470;49.322;7.218;2023-08-01T01:01:24;97450.41;;;21.83;100.00
18275;BME280;19470;49.322;7.218;2023-08-01T01:03:51;97452.00;;;21.56;100.00
18275;BME280;19470;49.322;7.218;2023-08-01T01:06:20;97444.97;;;21.51;100.00
18275;BME280;19470;49.322;7.218;2023-08-01T01:08:48;97443.53;;;21.29;100.00
18275;BME280;19470;49.322;7.218;2023-08-01T01:11:16;97438.53;;;21.56;100.00
18275;BME280;19470;49.322;7.218;2023-08-01T01:13:43;97442.94;;;21.92;100.00
18275;BME280;19470;49.322;7.218;2023-08-01T01:16:09;97435.41;;;21.98;100.00
18275;BME280;19470;49.322;7.218;2023-08-01T01:18:37;97432.69;;;21.54;100.00
18275;BME280;19470;49.322;7.218;2023-08-01T01:21:05;97427.13;;;21.90;100.00
18275;BME280;19470;49.322;7.218;2023-08-01T01:23:32;97424.16;;;21.80;100.00
18275;BME280;19470;49.322;7.218;2023-08-01T01:26:00;97417.16;;;22.07;100.00
18275;BME280;19470;49.322;7.218;2023-08-01T01:28:28;97412.97;;;22.25;100.00
18275;BME280;19470;49.322;7.218;2023-08-01T01:30:56;97407.31;;;21.99;100.00
18275;BME280;19470;49.322;7.218;2023-08-01T01:33:23;97404.16;;;21.65;100.00
18275;BME280;19470;49.322;7.218;2023-08-01T01:35:49;97401.38;;;21.33;100.00
18275;BME280;19470;49.322;7.218;2023-08-01T01:38:17;97402.94;;;21.78;100.00
18275;BME280;19470;49.322;7.218;2023-08-01T01:40:44;97404.19;;;21.53;100.00
18275;BME280;19470;49.322;7.218;2023-08-01T01:43:10;97398.69;;;22.09;100.00
18275;BME280;19470;49.322;7.218;2023-08-01T01:45:37;97390.19;;;22.38;100.00
18275;BME280;19470;49.322;7.218;2023-08-01T01:48:04;97391.25;;;22.18;100.00
18275;BME280;19470;49.322;7.218;2023-08-01T01:50:30;97395.59;;;22.07;100.00
18275;BME280;19470;49.322;7.218;2023-08-01T01:52:56;97388.88;;;22.01;100.00
18275;BME280;19470;49.322;7.218;2023-08-01T01:55:24;97394.56;;;22.27;100.00
18275;BME280;19470;49.322;7.218;2023-08-01T01:57:51;97365.59;;;22.24;100.00
18275;BME280;19470;49.322;7.218;2023-08-01T02:00:17;97360.59;;;22.10;100.00
18275;BME280;19470;49.322;7.218;2023-08-01T02:03:02;97333.66;;;22.26;100.00
18275;BME280;19470;49.322;7.218;2023-08-01T02:05:29;97336.47;;;22.14;100.00
18275;BME280;19470;49.322;7.218;2023-08-01T02:08:05;97363.94;;;22.19;100.00
18275;BME280;19470;49.322;7.218;2023-08-01T02:10:33;97348.44;;;21.85;100.00
18275;BME280;19470;49.322;7.218;2023-08-01T02:12:59;97358.53;;;22.04;100.00
18275;BME280;19470;49.322;7.218;2023-08-01T02:15:26;97355.13;;;22.38;100.00
18275;BME280;19470;49.322;7.218;2023-08-01T02:17:53;97369.13;;;21.65;100.00
18275;BME280;19470;49.322;7.218;2023-08-01T02:20:19;97368.44;;;22.00;100.00
18275;BME280;19470;49.322;7.218;2023-08-01T02:22:46;97358.84;;;22.50;100.00
18275;BME280;19470;49.322;7.218;2023-08-01T02:25:12;97372.56;;;21.50;100.00
18275;BME280;19470;49.322;7.218;2023-08-01T02:27:40;97370.09;;;22.04;100.00
18275;BME280;19470;49.322;7.218;2023-08-01T02:30:08;97369.97;;;22.64;100.00
18275;BME280;19470;49.322;7.218;2023-08-01T02:32:34;97360.88;;;22.05;100.00
18275;BME280;19470;49.322;7.218;2023-08-01T02:35:01;97349.06;;;21.94;100.00
18275;BME280;19470;49.322;7.218;2023-08-01T02:37:27;97342.59;;;22.46;100.00
18275;BME280;19470;49.322;7.218;2023-08-01T02:39:54;97347.31;;;22.33;100.00
18275;BME280;19470;49.322;7.218;2023-08-01T02:42:20;97349.44;;;22.43;100.00
18275;BME280;19470;49.322;7.218;2023-08-01T02:44:48;97347.06;;;22.07;100.00
18275;BME280;19470;49.322;7.218;2023-08-01T02:47:15;97345.91;;;21.76;100.00
18275;BME280;19470;49.322;7.218;2023-08-01T02:49:41;97342.50;;;22.11;100.00
18275;BME280;19470;49.322;7.218;2023-08-01T02:52:08;97332.72;;;22.89;100.00
18275;BME280;19470;49.322;7.218;2023-08-01T02:54:35;97330.63;;;22.82;100.00
18275;BME280;19470;49.322;7.218;2023-08-01T02:57:02;97330.28;;;22.49;100.00
18275;BME280;19470;49.322;7.218;2023-08-01T02:59:28;97342.88;;;22.25;100.00
18275;BME280;19470;49.322;7.218;2023-08-01T03:01:59;97339.16;;;22.14;100.00
18275;BME280;19470;49.322;7.218;2023-08-01T03:04:26;97337.84;;;21.60;100.00
18275;BME280;19470;49.322;7.218;2023-08-01T03:06:52;97346.41;;;22.45;100.00
18275;BME280;19470;49.322;7.218;2023-08-01T03:09:19;97344.91;;;22.48;100.00
18275;BME280;19470;49.322;7.218;2023-08-01T03:11:45;97335.41;;;21.71;100.00
18275;BME280;19470;49.322;7.218;2023-08-01T03:17:36;97324.31;;;22.39;100.00
18275;BME280;19470;49.322;7.218;2023-08-01T03:20:03;97332.53;;;22.27;100.00
18275;BME280;19470;49.322;7.218;2023-08-01T03:22:30;97322.19;;;21.98;100.00
18275;BME280;19470;49.322;7.218;2023-08-01T03:24:57;97324.38;;;21.60;100.00
18275;BME280;19470;49.322;7.218;2023-08-01T03:27:24;97317.59;;;21.51;100.00
18275;BME280;19470;49.322;7.218;2023-08-01T03:29:50;97320.09;;;21.59;100.00
18275;BME280;19470;49.322;7.218;2023-08-01T03:32:17;97316.63;;;21.59;100.00
18275;BME280;19470;49.322;7.218;2023-08-01T03:34:44;97329.09;;;21.35;100.00
18275;BME280;19470;49.322;7.218;2023-08-01T03:37:11;97299.03;;;21.97;100.00
18275;BME280;19470;49.322;7.218;2023-08-01T03:39:39;97287.88;;;21.79;100.00
18275;BME280;19470;49.322;7.218;2023-08-01T03:42:05;97278.91;;;21.90;100.00
18275;BME280;19470;49.322;7.218;2023-08-01T03:44:33;97286.72;;;21.95;100.00
18275;BME280;19470;49.322;7.218;2023-08-01T03:46:59;97279.44;;;21.80;100.00
18275;BME280;19470;49.322;7.218;2023-08-01T03:49:26;97268.75;;;21.84;100.00
18275;BME280;19470;49.322;7.218;2023-08-01T03:51:54;97261.16;;;21.89;100.00
18275;BME280;19470;49.322;7.218;2023-08-01T03:54:20;97277.34;;;21.89;100.00
18275;BME280;19470;49.322;7.218;2023-08-01T04:00:09;97284.28;;;21.59;100.00
18275;BME280;19470;49.322;7.218;2023-08-01T04:02:39;97278.47;;;21.73;100.00
18275;BME280;19470;49.322;7.218;2023-08-01T04:05:06;97259.97;;;21.71;100.00
18275;BME280;19470;49.322;7.218;2023-08-01T04:07:35;97268.31;;;21.66;100.00
18275;BME280;19470;49.322;7.218;2023-08-01T04:10:02;97271.88;;;21.38;100.00
18275;BME280;19470;49.322;7.218;2023-08-01T04:12:29;97265.97;;;21.49;100.00
18275;BME280;19470;49.322;7.218;2023-08-01T04:14:56;97268.50;;;21.41;100.00
18275;BME280;19470;49.322;7.218;2023-08-01T04:17:22;97261.09;;;21.54;100.00
18275;BME280;19470;49.322;7.218;2023-08-01T04:19:49;97266.69;;;21.17;100.00
18275;BME280;19470;49.322;7.218;2023-08-01T04:22:15;97268.34;;;21.22;100.00
18275;BME280;19470;49.322;7.218;2023-08-01T04:24:44;97276.66;;;21.61;100.00
18275;BME280;19470;49.322;7.218;2023-08-01T04:27:17;97255.66;;;20.79;100.00
18275;BME280;19470;49.322;7.218;2023-08-01T04:29:43;97246.13;;;20.81;100.00
18275;BME280;19470;49.322;7.218;2023-08-01T04:32:10;97248.81;;;20.41;100.00
18275;BME280;19470;49.322;7.218;2023-08-01T04:34:39;97268.34;;;21.22;100.00
18275;BME280;19470;49.322;7.218;2023-08-01T04:37:05;97259.97;;;20.96;100.00
18275;BME280;19470;49.322;7.218;2023-08-01T04:39:32;97264.31;;;20.72;100.00
18275;BME280;19470;49.322;7.218;2023-08-01T04:42:00;97259.66;;;20.45;100.00
18275;BME280;19470;49.322;7.218;2023-08-01T04:44:26;97263.72;;;20.38;100.00
18275;BME280;19470;49.322;7.218;2023-08-01T04:46:54;97258.59;;;20.33;100.00
18275;BME280;19470;49.322;7.218;2023-08-01T04:49:21;97256.50;;;21.11;100.00
18275;BME280;19470;49.322;7.218;2023-08-01T04:51:48;97249.34;;;20.59;100.00
18275;BME280;19470;49.322;7.218;2023-08-01T04:54:15;97269.47;;;21.21;100.00
18275;BME280;19470;49.322;7.218;2023-08-01T04:56:42;97259.31;;;21.14;100.00
18275;BME280;19470;49.322;7.218;2023-08-01T04:59:09;97260.88;;;20.87;100.00
18275;BME280;19470;49.322;7.218;2023-08-01T05:01:36;97252.78;;;20.19;100.00
18275;BME280;19470;49.322;7.218;2023-08-01T05:04:03;97254.19;;;20.81;100.00
18275;BME280;19470;49.322;7.218;2023-08-01T05:06:30;97236.44;;;20.12;100.00
18275;BME280;19470;49.322;7.218;2023-08-01T05:08:56;97244.94;;;20.95;100.00
18275;BME280;19470;49.322;7.218;2023-08-01T05:11:23;97254.63;;;20.83;100.00
18275;BME280;19470;49.322;7.218;2023-08-01T05:13:49;97252.31;;;20.29;100.00
18275;BME280;19470;49.322;7.218;2023-08-01T05:16:17;97258.91;;;20.84;100.00
18275;BME280;19470;49.322;7.218;2023-08-01T05:18:46;97252.16;;;20.62;100.00
18275;BME280;19470;49.322;7.218;2023-08-01T05:21:12;97253.69;;;20.91;100.00
18275;BME280;19470;49.322;7.218;2023-08-01T05:23:39;97259.19;;;21.11;100.00
18275;BME280;19470;49.322;7.218;2023-08-01T05:26:06;97255.63;;;21.07;100.00
18275;BME280;19470;49.322;7.218;2023-08-01T05:28:33;97252.31;;;20.98;100.00
18275;BME280;19470;49.322;7.218;2023-08-01T05:31:01;97248.91;;;20.57;100.00
18275;BME280;19470;49.322;7.218;2023-08-01T05:33:29;97254.53;;;20.52;100.00
18275;BME280;19470;49.322;7.218;2023-08-01T05:35:56;97252.38;;;20.85;100.00
18275;BME280;19470;49.322;7.218;2023-08-01T05:38:23;97252.34;;;21.41;100.00
18275;BME280;19470;49.322;7.218;2023-08-01T05:40:50;97249.19;;;21.39;100.00
18275;BME280;19470;49.322;7.218;2023-08-01T05:43:17;97250.34;;;21.26;100.00
18275;BME280;19470;49.322;7.218;2023-08-01T05:45:44;97263.91;;;21.30;100.00
18275;BME280;19470;49.322;7.218;2023-08-01T05:48:10;97258.66;;;21.49;100.00
18275;BME280;19470;49.322;7.218;2023-08-01T05:50:40;97260.50;;;21.17;100.00
18275;BME280;19470;49.322;7.218;2023-08-01T05:53:06;97278.13;;;21.42;100.00
18275;BME280;19470;49.322;7.218;2023-08-01T05:55:33;97282.09;;;20.89;100.00
18275;BME280;19470;49.322;7.218;2023-08-01T05:58:00;97286.88;;;20.96;100.00
18275;BME280;19470;49.322;7.218;2023-08-01T06:00:26;97292.97;;;21.36;100.00
18275;BME280;19470;49.322;7.218;2023-08-01T06:02:53;97285.56;;;20.89;100.00
18275;BME280;19470;49.322;7.218;2023-08-01T06:05:20;97290.44;;;20.72;100.00
18275;BME280;19470;49.322;7.218;2023-08-01T06:07:48;97293.38;;;20.95;100.00
18275;BME280;19470;49.322;7.218;2023-08-01T06:10:14;97278.69;;;20.92;100.00
18275;BME280;19470;49.322;7.218;2023-08-01T06:12:41;97271.38;;;21.21;100.00
18275;BME280;19470;49.322;7.218;2023-08-01T06:15:08;97270.94;;;21.47;100.00
18275;BME280;19470;49.322;7.218;2023-08-01T06:17:35;97265.81;;;21.41;100.00
18275;BME280;19470;49.322;7.218;2023-08-01T06:20:02;97271.47;;;21.24;100.00
18275;BME280;19470;49.322;7.218;2023-08-01T06:22:30;97271.72;;;21.19;100.00
18275;BME280;19470;49.322;7.218;2023-08-01T06:24:58;97286.50;;;21.25;100.00
18275;BME280;19470;49.322;7.218;2023-08-01T06:27:24;97287.59;;;21.68;100.00
18275;BME280;19470;49.322;7.218;2023-08-01T06:29:51;97272.09;;;21.17;100.00
18275;BME280;19470;49.322;7.218;2023-08-01T06:32:18;97275.16;;;21.95;100.00
18275;BME280;19470;49.322;7.218;2023-08-01T06:34:44;97276.69;;;22.28;100.00
18275;BME280;19470;49.322;7.218;2023-08-01T06:37:11;97272.63;;;21.86;100.00
18275;BME280;19470;49.322;7.218;2023-08-01T06:39:37;97278.63;;;22.47;100.00
18275;BME280;19470;49.322;7.218;2023-08-01T06:42:06;97275.25;;;21.67;100.00
18275;BME280;19470;49.322;7.218;2023-08-01T06:44:33;97284.66;;;21.41;100.00
18275;BME280;19470;49.322;7.218;2023-08-01T06:47:00;97290.47;;;21.43;100.00
18275;BME280;19470;49.322;7.218;2023-08-01T06:49:26;97281.16;;;21.88;100.00
18275;BME280;19470;49.322;7.218;2023-08-01T06:51:53;97294.31;;;21.74;100.00
18275;BME280;19470;49.322;7.218;2023-08-01T06:54:19;97287.06;;;21.78;100.00
18275;BME280;19470;49.322;7.218;2023-08-01T06:56:46;97295.91;;;22.26;100.00
18275;BME280;19470;49.322;7.218;2023-08-01T06:59:15;97302.56;;;22.13;100.00
18275;BME280;19470;49.322;7.218;2023-08-01T07:01:41;97318.50;;;22.37;100.00
18275;BME280;19470;49.322;7.218;2023-08-01T07:04:09;97301.66;;;22.79;100.00
18275;BME280;19470;49.322;7.218;2023-08-01T07:06:35;97306.75;;;22.45;100.00
18275;BME280;19470;49.322;7.218;2023-08-01T07:09:14;97309.28;;;22.38;100.00
18275;BME280;19470;49.322;7.218;2023-08-01T07:11:41;97314.31;;;22.94;100.00
18275;BME280;19470;49.322;7.218;2023-08-01T07:14:08;97323.41;;;21.84;100.00
18275;BME280;19470;49.322;7.218;2023-08-01T07:16:35;97324.47;;;21.80;100.00
18275;BME280;19470;49.322;7.218;2023-08-01T07:19:02;97333.81;;;22.33;100.00
18275;BME280;19470;49.322;7.218;2023-08-01T07:21:28;97337.00;;;22.39;100.00
18275;BME280;19470;49.322;7.218;2023-08-01T07:23:55;97325.50;;;23.35;100.00
18275;BME280;19470;49.322;7.218;2023-08-01T07:26:23;97336.34;;;22.97;100.00
18275;BME280;19470;49.322;7.218;2023-08-01T07:28:49;97343.13;;;22.71;100.00
18275;BME280;19470;49.322;7.218;2023-08-01T07:31:16;97349.13;;;23.00;100.00
18275;BME280;19470;49.322;7.218;2023-08-01T07:33:44;97364.25;;;22.50;100.00
18275;BME280;19470;49.322;7.218;2023-08-01T07:36:10;97356.59;;;23.06;100.00
18275;BME280;19470;49.322;7.218;2023-08-01T07:38:37;97369.56;;;22.46;100.00
18275;BME280;19470;49.322;7.218;2023-08-01T07:41:06;97373.94;;;22.70;100.00
18275;BME280;19470;49.322;7.218;2023-08-01T07:43:33;97377.59;;;22.27;100.00
18275;BME280;19470;49.322;7.218;2023-08-01T07:46:00;97381.34;;;22.73;100.00
18275;BME280;19470;49.322;7.218;2023-08-01T07:48:26;97379.06;;;22.24;100.00
18275;BME280;19470;49.322;7.218;2023-08-01T07:50:54;97392.50;;;22.56;100.00
18275;BME280;19470;49.322;7.218;2023-08-01T07:53:21;97387.50;;;22.07;100.00
18275;BME280;19470;49.322;7.218;2023-08-01T07:55:47;97393.94;;;22.34;100.00
18275;BME280;19470;49.322;7.218;2023-08-01T07:58:16;97394.25;;;21.85;100.00
18275;BME280;19470;49.322;7.218;2023-08-01T08:00:43;97390.69;;;21.81;100.00
18275;BME280;19470;49.322;7.218;2023-08-01T08:03:09;97392.97;;;21.94;100.00
18275;BME280;19470;49.322;7.218;2023-08-01T08:05:36;97396.78;;;22.57;100.00
18275;BME280;19470;49.322;7.218;2023-08-01T08:08:05;97400.38;;;22.80;98.55
18275;BME280;19470;49.322;7.218;2023-08-01T08:10:31;97397.66;;;22.96;94.92
18275;BME280;19470;49.322;7.218;2023-08-01T08:12:58;97409.81;;;23.64;96.95
18275;BME280;19470;49.322;7.218;2023-08-01T08:15:24;97398.84;;;23.57;91.67
18275;BME280;19470;49.322;7.218;2023-08-01T08:17:51;97414.66;;;22.97;89.35
18275;BME280;19470;49.322;7.218;2023-08-01T08:20:18;97422.22;;;22.91;92.22
18275;BME280;19470;49.322;7.218;2023-08-01T08:22:44;97418.19;;;22.50;92.47
18275;BME280;19470;49.322;7.218;2023-08-01T08:25:12;97427.72;;;23.33;87.06
18275;BME280;19470;49.322;7.218;2023-08-01T08:27:39;97420.19;;;23.04;88.72
18275;BME280;19470;49.322;7.218;2023-08-01T08:30:06;97414.50;;;23.28;84.90
18275;BME280;19470;49.322;7.218;2023-08-01T08:32:33;97430.50;;;23.37;85.40
18275;BME280;19470;49.322;7.218;2023-08-01T08:34:59;97424.88;;;23.07;84.39
18275;BME280;19470;49.322;7.218;2023-08-01T08:37:26;97434.69;;;24.38;77.23
18275;BME280;19470;49.322;7.218;2023-08-01T08:39:52;97434.38;;;24.43;78.29
18275;BME280;19470;49.322;7.218;2023-08-01T08:42:20;97426.00;;;24.06;79.83
18275;BME280;19470;49.322;7.218;2023-08-01T08:44:50;97431.72;;;24.73;73.20
18275;BME280;19470;49.322;7.218;2023-08-01T08:47:24;97425.78;;;24.91;74.81
18275;BME280;19470;49.322;7.218;2023-08-01T08:49:51;97434.00;;;24.22;80.13
18275;BME280;19470;49.322;7.218;2023-08-01T08:52:18;97431.47;;;24.56;75.82
18275;BME280;19470;49.322;7.218;2023-08-01T08:54:45;97439.06;;;23.62;79.94
18275;BME280;19470;49.322;7.218;2023-08-01T08:57:13;97444.56;;;23.85;80.30
18275;BME280;19470;49.322;7.218;2023-08-01T08:59:42;97448.31;;;22.52;84.26
18275;BME280;19470;49.322;7.218;2023-08-01T09:02:09;97453.16;;;23.32;81.66
18275;BME280;19470;49.322;7.218;2023-08-01T09:04:36;97452.75;;;23.50;79.87
18275;BME280;19470;49.322;7.218;2023-08-01T09:07:06;97444.47;;;23.62;78.93
18275;BME280;19470;49.322;7.218;2023-08-01T09:09:34;97446.28;;;24.65;76.30
18275;BME280;19470;49.322;7.218;2023-08-01T09:12:02;97440.25;;;25.29;71.14
18275;BME280;19470;49.322;7.218;2023-08-01T09:14:29;97452.53;;;24.20;75.58
18275;BME280;19470;49.322;7.218;2023-08-01T09:17:06;97447.47;;;24.41;74.05
18275;BME280;19470;49.322;7.218;2023-08-01T09:19:34;97452.34;;;24.09;73.27
18275;BME280;19470;49.322;7.218;2023-08-01T09:22:01;97461.47;;;24.24;72.45
18275;BME280;19470;49.322;7.218;2023-08-01T09:24:27;97457.59;;;24.97;70.21
18275;BME280;19470;49.322;7.218;2023-08-01T09:27:02;97471.09;;;23.79;70.58
18275;BME280;19470;49.322;7.218;2023-08-01T09:29:29;97456.88;;;23.63;73.98
18275;BME280;19470;49.322;7.218;2023-08-01T09:31:57;97467.44;;;24.83;72.33
18275;BME280;19470;49.322;7.218;2023-08-01T09:34:26;97469.06;;;25.14;68.69
18275;BME280;19470;49.322;7.218;2023-08-01T09:36:58;97466.41;;;24.64;67.64
18275;BME280;19470;49.322;7.218;2023-08-01T09:39:25;97474.03;;;25.08;65.80
18275;BME280;19470;49.322;7.218;2023-08-01T09:41:55;97468.94;;;24.31;64.65
18275;BME280;19470;49.322;7.218;2023-08-01T09:44:22;97469.59;;;25.57;61.62
18275;BME280;19470;49.322;7.218;2023-08-01T09:46:55;97472.97;;;24.63;64.65
18275;BME280;19470;49.322;7.218;2023-08-01T09:49:22;97474.22;;;25.86;62.64
18275;BME280;19470;49.322;7.218;2023-08-01T09:51:50;97479.47;;;24.59;65.96
18275;BME280;19470;49.322;7.218;2023-08-01T09:54:17;97480.06;;;24.48;66.15
18275;BME280;19470;49.322;7.218;2023-08-01T09:56:45;97482.72;;;24.94;66.07
18275;BME280;19470;49.322;7.218;2023-08-01T09:59:12;97499.78;;;23.84;68.11
18275;BME280;19470;49.322;7.218;2023-08-01T10:01:44;97487.81;;;23.85;68.59
18275;BME280;19470;49.322;7.218;2023-08-01T10:04:12;97500.28;;;23.70;69.29
18275;BME280;19470;49.322;7.218;2023-08-01T10:06:42;97499.97;;;23.75;71.35
18275;BME280;19470;49.322;7.218;2023-08-01T10:09:11;97489.03;;;24.79;66.62
18275;BME280;19470;49.322;7.218;2023-08-01T10:11:38;97487.72;;;25.49;65.84
18275;BME280;19470;49.322;7.218;2023-08-01T10:14:06;97493.91;;;25.49;67.37
18275;BME280;19470;49.322;7.218;2023-08-01T10:16:34;97493.09;;;26.13;64.20
18275;BME280;19470;49.322;7.218;2023-08-01T10:19:00;97498.38;;;25.98;62.98
18275;BME280;19470;49.322;7.218;2023-08-01T10:21:27;97495.56;;;25.58;63.51
18275;BME280;19470;49.322;7.218;2023-08-01T10:23:55;97498.03;;;25.10;64.66
18275;BME280;19470;49.322;7.218;2023-08-01T10:26:25;97500.25;;;25.61;63.39
18275;BME280;19470;49.322;7.218;2023-08-01T10:28:52;97514.50;;;23.86;67.19
18275;BME280;19470;49.322;7.218;2023-08-01T10:31:19;97524.75;;;23.96;66.67
18275;BME280;19470;49.322;7.218;2023-08-01T10:33:48;97510.63;;;23.49;68.89
18275;BME280;19470;49.322;7.218;2023-08-01T10:36:16;97491.31;;;24.51;66.23
18275;BME280;19470;49.322;7.218;2023-08-01T10:38:49;97497.06;;;26.22;60.15
18275;BME280;19470;49.322;7.218;2023-08-01T10:41:21;97495.88;;;26.20;60.65
18275;BME280;19470;49.322;7.218;2023-08-01T10:43:49;97494.13;;;27.56;56.75
18275;BME280;19470;49.322;7.218;2023-08-01T10:46:15;97495.63;;;27.46;55.84
18275;BME280;19470;49.322;7.218;2023-08-01T10:48:49;97503.38;;;25.93;58.06
18275;BME280;19470;49.322;7.218;2023-08-01T10:51:16;97495.72;;;25.08;61.20
18275;BME280;19470;49.322;7.218;2023-08-01T10:53:43;97490.97;;;25.62;58.85
18275;BME280;19470;49.322;7.218;2023-08-01T10:56:16;97489.53;;;25.71;59.26
18275;BME280;19470;49.322;7.218;2023-08-01T10:58:43;97519.31;;;25.38;60.95
18275;BME280;19470;49.322;7.218;2023-08-01T11:01:11;97508.84;;;25.66;59.72
18275;BME280;19470;49.322;7.218;2023-08-01T11:03:38;97512.09;;;25.49;60.26
18275;BME280;19470;49.322;7.218;2023-08-01T11:06:07;97518.41;;;26.65;57.05
18275;BME280;19470;49.322;7.218;2023-08-01T11:08:34;97518.66;;;27.00;56.26
18275;BME280;19470;49.322;7.218;2023-08-01T11:11:01;97518.63;;;25.44;59.08
18275;BME280;19470;49.322;7.218;2023-08-01T11:13:28;97516.72;;;27.67;54.54
18275;BME280;19470;49.322;7.218;2023-08-01T11:15:54;97525.53;;;28.62;53.05
18275;BME280;19470;49.322;7.218;2023-08-01T11:18:23;97511.38;;;27.88;53.65
18275;BME280;19470;49.322;7.218;2023-08-01T11:20:49;97513.03;;;29.14;50.19
18275;BME280;19470;49.322;7.218;2023-08-01T11:23:16;97496.97;;;30.81;48.39
18275;BME280;19470;49.322;7.218;2023-08-01T11:25:43;97509.09;;;28.05;52.74
18275;BME280;19470;49.322;7.218;2023-08-01T11:28:13;97516.56;;;27.35;55.12
18275;BME280;19470;49.322;7.218;2023-08-01T11:30:39;97505.88;;;27.74;54.88
18275;BME280;19470;49.322;7.218;2023-08-01T11:33:15;97508.34;;;28.93;52.57
18275;BME280;19470;49.322;7.218;2023-08-01T11:35:43;97515.97;;;26.53;56.59
18275;BME280;19470;49.322;7.218;2023-08-01T11:38:10;97515.53;;;26.98;56.09
18275;BME280;19470;49.322;7.218;2023-08-01T11:40:38;97523.56;;;27.36;55.20
18275;BME280;19470;49.322;7.218;2023-08-01T11:43:05;97521.63;;;27.36;53.98
18275;BME280;19470;49.322;7.218;2023-08-01T11:45:31;97524.78;;;27.45;51.18
18275;BME280;19470;49.322;7.218;2023-08-01T11:47:58;97546.25;;;26.58;55.63
18275;BME280;19470;49.322;7.218;2023-08-01T11:50:25;97521.72;;;26.07;57.88
18275;BME280;19470;49.322;7.218;2023-08-01T11:52:53;97528.44;;;27.78;53.62
18275;BME280;19470;49.322;7.218;2023-08-01T11:55:25;97529.41;;;28.50;51.00
18275;BME280;19470;49.322;7.218;2023-08-01T11:57:56;97520.59;;;26.96;54.00
18275;BME280;19470;49.322;7.218;2023-08-01T12:00:24;97526.13;;;26.63;55.78
18275;BME280;19470;49.322;7.218;2023-08-01T12:02:51;97507.47;;;27.09;56.02
18275;BME280;19470;49.322;7.218;2023-08-01T12:05:22;97516.84;;;28.02;52.90
18275;BME280;19470;49.322;7.218;2023-08-01T12:07:48;97514.56;;;26.69;56.37
18275;BME280;19470;49.322;7.218;2023-08-01T12:10:16;97498.75;;;26.82;57.11
18275;BME280;19470;49.322;7.218;2023-08-01T12:12:44;97498.72;;;26.34;56.62
18275;BME280;19470;49.322;7.218;2023-08-01T12:15:11;97512.41;;;26.93;56.30
18275;BME280;19470;49.322;7.218;2023-08-01T12:17:38;97516.16;;;27.33;55.78
18275;BME280;19470;49.322;7.218;2023-08-01T12:20:05;97520.66;;;26.56;55.22
18275;BME280;19470;49.322;7.218;2023-08-01T12:22:32;97529.31;;;25.64;57.90
18275;BME280;19470;49.322;7.218;2023-08-01T12:24:59;97524.19;;;26.60;57.24
18275;BME280;19470;49.322;7.218;2023-08-01T12:27:27;97519.47;;;26.16;58.03
18275;BME280;19470;49.322;7.218;2023-08-01T12:29:53;97521.88;;;25.87;58.77
18275;BME280;19470;49.322;7.218;2023-08-01T12:32:20;97518.59;;;26.05;58.14
18275;BME280;19470;49.322;7.218;2023-08-01T12:34:46;97526.72;;;25.71;59.03
18275;BME280;19470;49.322;7.218;2023-08-01T12:37:13;97526.69;;;25.11;60.44
18275;BME280;19470;49.322;7.218;2023-08-01T12:39:39;97518.94;;;25.99;58.55
18275;BME280;19470;49.322;7.218;2023-08-01T12:42:06;97527.69;;;25.86;57.99
18275;BME280;19470;49.322;7.218;2023-08-01T12:44:34;97524.59;;;25.87;57.07
18275;BME280;19470;49.322;7.218;2023-08-01T12:47:00;97524.59;;;25.87;56.46
18275;BME280;19470;49.322;7.218;2023-08-01T12:49:27;97521.84;;;25.54;57.86
18275;BME280;19470;49.322;7.218;2023-08-01T12:51:53;97519.81;;;26.11;57.55
18275;BME280;19470;49.322;7.218;2023-08-01T12:54:20;97525.97;;;25.74;56.70
18275;BME280;19470;49.322;7.218;2023-08-01T12:56:46;97511.03;;;26.24;56.15
18275;BME280;19470;49.322;7.218;2023-08-01T12:59:13;97542.22;;;25.14;58.04